sensor_id;sensor_type;location;lat;lon;timestamp;pressure;altitude;pressure_sealevel;temperature;humidity
1371;BME280;14306;49.942;11.570;2023-07-20T00:01:11;97207.41;;;19.50;75.01
1371;BME280;14306;49.942;11.570;2023-07-20T00:03:57;97205.16;;;19.56;74.75
1371;BME280;14306;49.942;11.570;2023-07-20T00:06:26;97216.22;;;19.85;73.53
1371;BME280;14306;49.942;11.570;2023-07-20T00:08:55;97216.78;;;19.72;74.67
1371;BME280;14306;49.942;11.570;2023-07-20T00:11:26;97229.28;;;19.92;73.72
1371;BME280;14306;49.942;11.570;2023-07-20T00:13:54;97232.91;;;19.51;77.33
1371;BME280;14306;49.942;11.570;2023-07-20T00:16:22;97221.59;;;19.14;79.07
1371;BME280;14306;49.942;11.570;2023-07-20T00:18:51;97222.97;;;19.04;79.96
1371;BME280;14306;49.942;11.570;2023-07-20T00:21:18;97230.22;;;18.93;80.64
1371;BME280;14306;49.942;11.570;2023-07-20T00:23:48;97223.75;;;18.63;82.72
1371;BME280;14306;49.942;11.570;2023-07-20T00:26:16;97223.66;;;18.60;82.84
1371;BME280;14306;49.942;11.570;2023-07-20T00:28:44;97227.19;;;18.60;83.08
1371;BME280;14306;49.942;11.570;2023-07-20T00:31:12;97227.19;;;18.60;83.16
1371;BME280;14306;49.942;11.570;2023-07-20T00:33:40;97239.44;;;18.66;82.78
1371;BME280;14306;49.942;11.570;2023-07-20T00:36:08;97232.97;;;18.74;82.29
1371;BME280;14306;49.942;11.570;2023-07-20T00:38:36;97233.03;;;18.78;83.00
1371;BME280;14306;49.942;11.570;2023-07-20T00:41:05;97230.44;;;18.85;81.98
1371;BME280;14306;49.942;11.570;2023-07-20T00:43:33;97236.81;;;18.89;81.74
1371;BME280;14306;49.942;11.570;2023-07-20T00:46:01;97239.09;;;18.87;81.75
1371;BME280;14306;49.942;11.570;2023-07-20T00:48:30;97241.53;;;19.11;80.71
1371;BME280;14306;49.942;11.570;2023-07-20T00:50:59;97236.56;;;19.16;80.47
1371;BME280;14306;49.942;11.570;2023-07-20T00:53:28;97243.06;;;19.28;79.21
1371;BME280;14306;49.942;11.570;2023-07-20T00:55:56;97245.72;;;19.66;77.49
1371;BME280;14306;49.942;11.570;2023-07-20T00:58:25;97237.81;;;19.61;77.35
1371;BME280;14306;49.942;11.570;2023-07-20T01:00:53;97233.56;;;19.44;78.48
1371;BME280;14306;49.942;11.570;2023-07-20T01:03:21;97233.25;;;19.07;80.98
1371;BME280;14306;49.942;11.570;2023-07-20T01:05:54;97221.34;;;18.62;82.31
1371;BME280;14306;49.942;11.570;2023-07-20T01:08:28;97222.25;;;18.50;82.88
1371;BME280;14306;49.942;11.570;2023-07-20T01:11:05;97215.75;;;18.39;83.57
1371;BME280;14306;49.942;11.570;2023-07-20T01:13:36;97220.63;;;18.30;82.93
1371;BME280;14306;49.942;11.570;2023-07-20T01:16:05;97222.31;;;18.35;83.06
1371;BME280;14306;49.942;11.570;2023-07-20T01:18:33;97223.00;;;18.32;84.64
1371;BME280;14306;49.942;11.570;2023-07-20T01:21:06;97216.50;;;18.21;84.53
1371;BME280;14306;49.942;11.570;2023-07-20T01:23:56;97226.16;;;18.49;83.29
1371;BME280;14306;49.942;11.570;2023-07-20T01:26:43;97219.47;;;18.66;82.11
1371;BME280;14306;49.942;11.570;2023-07-20T01:29:22;97219.53;;;19.07;79.87
1371;BME280;14306;49.942;11.570;2023-07-20T01:32:00;97218.75;;;19.49;77.91
1371;BME280;14306;49.942;11.570;2023-07-20T01:34:30;97223.25;;;19.60;76.98
1371;BME280;14306;49.942;11.570;2023-07-20T01:37:00;97230.84;;;19.67;76.76
1371;BME280;14306;49.942;11.570;2023-07-20T01:39:28;97226.84;;;19.64;76.81
1371;BME280;14306;49.942;11.570;2023-07-20T01:41:57;97229.56;;;19.61;76.92
1371;BME280;14306;49.942;11.570;2023-07-20T01:44:25;97234.75;;;19.66;77.51
1371;BME280;14306;49.942;11.570;2023-07-20T01:46:53;97234.78;;;19.47;77.19
1371;BME280;14306;49.942;11.570;2023-07-20T01:49:22;97222.25;;;19.07;78.81
1371;BME280;14306;49.942;11.570;2023-07-20T01:51:50;97226.91;;;19.03;79.52
1371;BME280;14306;49.942;11.570;2023-07-20T01:54:18;97221.97;;;18.93;79.68
1371;BME280;14306;49.942;11.570;2023-07-20T01:56:46;97223.16;;;18.73;80.09
1371;BME280;14306;49.942;11.570;2023-07-20T01:59:14;97222.75;;;18.37;82.51
1371;BME280;14306;49.942;11.570;2023-07-20T02:01:44;97210.47;;;18.15;84.14
1371;BME280;14306;49.942;11.570;2023-07-20T02:04:12;97203.38;;;17.95;83.84
1371;BME280;14306;49.942;11.570;2023-07-20T02:06:41;97199.19;;;18.01;84.79
1371;BME280;14306;49.942;11.570;2023-07-20T02:09:09;97197.72;;;17.88;84.89
1371;BME280;14306;49.942;11.570;2023-07-20T02:11:37;97208.25;;;18.21;83.29
1371;BME280;14306;49.942;11.570;2023-07-20T02:14:05;97208.38;;;18.43;81.77
1371;BME280;14306;49.942;11.570;2023-07-20T02:16:33;97210.94;;;18.71;80.76
1371;BME280;14306;49.942;11.570;2023-07-20T02:19:01;97215.25;;;18.72;80.77
1371;BME280;14306;49.942;11.570;2023-07-20T02:21:29;97200.16;;;18.62;81.77
1371;BME280;14306;49.942;11.570;2023-07-20T02:23:58;97197.06;;;18.45;81.85
1371;BME280;14306;49.942;11.570;2023-07-20T02:26:26;97206.47;;;18.28;83.16
1371;BME280;14306;49.942;11.570;2023-07-20T02:28:55;97207.56;;;18.24;83.39
1371;BME280;14306;49.942;11.570;2023-07-20T02:31:23;97201.03;;;18.47;81.84
1371;BME280;14306;49.942;11.570;2023-07-20T02:33:51;97218.28;;;18.48;82.17
1371;BME280;14306;49.942;11.570;2023-07-20T02:36:19;97221.19;;;18.74;80.42
1371;BME280;14306;49.942;11.570;2023-07-20T02:38:47;97225.28;;;18.45;80.44
1371;BME280;14306;49.942;11.570;2023-07-20T02:41:16;97218.00;;;18.18;83.33
1371;BME280;14306;49.942;11.570;2023-07-20T02:43:45;97205.94;;;17.88;84.73
1371;BME280;14306;49.942;11.570;2023-07-20T02:46:12;97209.13;;;17.59;86.55
1371;BME280;14306;49.942;11.570;2023-07-20T02:48:41;97206.03;;;17.76;84.96
1371;BME280;14306;49.942;11.570;2023-07-20T02:51:08;97211.06;;;17.74;86.23
1371;BME280;14306;49.942;11.570;2023-07-20T02:53:38;97220.28;;;17.51;87.89
1371;BME280;14306;49.942;11.570;2023-07-20T02:56:05;97218.06;;;17.41;88.32
1371;BME280;14306;49.942;11.570;2023-07-20T02:58:35;97222.97;;;17.35;88.71
1371;BME280;14306;49.942;11.570;2023-07-20T03:01:03;97229.91;;;17.17;89.82
1371;BME280;14306;49.942;11.570;2023-07-20T03:03:31;97226.84;;;17.34;88.30
1371;BME280;14306;49.942;11.570;2023-07-20T03:06:06;97232.94;;;17.28;88.12
1371;BME280;14306;49.942;11.570;2023-07-20T03:08:35;97230.34;;;17.62;87.04
1371;BME280;14306;49.942;11.570;2023-07-20T03:11:03;97237.41;;;17.94;85.29
1371;BME280;14306;49.942;11.570;2023-07-20T03:13:31;97249.75;;;18.04;83.73
1371;BME280;14306;49.942;11.570;2023-07-20T03:16:01;97260.72;;;18.35;83.15
1371;BME280;14306;49.942;11.570;2023-07-20T03:18:29;97257.16;;;18.50;82.58
1371;BME280;14306;49.942;11.570;2023-07-20T03:20:57;97244.31;;;18.23;83.86
1371;BME280;14306;49.942;11.570;2023-07-20T03:23:25;97256.34;;;18.34;83.67
1371;BME280;14306;49.942;11.570;2023-07-20T03:25:54;97255.91;;;18.32;83.97
1371;BME280;14306;49.942;11.570;2023-07-20T03:28:22;97266.84;;;18.82;81.62
1371;BME280;14306;49.942;11.570;2023-07-20T03:30:53;97270.66;;;18.77;81.26
1371;BME280;14306;49.942;11.570;2023-07-20T03:33:25;97270.28;;;18.60;82.19
1371;BME280;14306;49.942;11.570;2023-07-20T03:35:54;97269.66;;;18.85;81.08
1371;BME280;14306;49.942;11.570;2023-07-20T03:38:23;97259.75;;;18.62;81.61
1371;BME280;14306;49.942;11.570;2023-07-20T03:40:51;97259.84;;;19.03;79.63
1371;BME280;14306;49.942;11.570;2023-07-20T03:43:19;97273.84;;;19.78;75.94
1371;BME280;14306;49.942;11.570;2023-07-20T03:45:48;97272.66;;;19.79;75.64
1371;BME280;14306;49.942;11.570;2023-07-20T03:48:17;97270.56;;;19.69;75.71
1371;BME280;14306;49.942;11.570;2023-07-20T03:50:48;97274.34;;;19.61;76.10
1371;BME280;14306;49.942;11.570;2023-07-20T03:53:17;97268.75;;;19.35;77.10
1371;BME280;14306;49.942;11.570;2023-07-20T03:55:45;97273.84;;;19.56;76.14
1371;BME280;14306;49.942;11.570;2023-07-20T03:58:14;97279.31;;;20.01;74.13
1371;BME280;14306;49.942;11.570;2023-07-20T04:00:44;97268.16;;;19.26;77.10
1371;BME280;14306;49.942;11.570;2023-07-20T04:03:13;97281.78;;;19.83;75.31
1371;BME280;14306;49.942;11.570;2023-07-20T04:05:41;97291.69;;;19.88;74.91
1371;BME280;14306;49.942;11.570;2023-07-20T04:08:12;97297.22;;;19.91;74.84
1371;BME280;14306;49.942;11.570;2023-07-20T04:10:43;97287.03;;;20.14;73.97
1371;BME280;14306;49.942;11.570;2023-07-20T04:13:12;97296.59;;;19.98;74.48
1371;BME280;14306;49.942;11.570;2023-07-20T04:15:40;97308.03;;;20.74;74.37
1371;BME280;14306;49.942;11.570;2023-07-20T04:18:08;97292.19;;;20.68;72.62
1371;BME280;14306;49.942;11.570;2023-07-20T04:20:37;97300.13;;;20.47;73.09
1371;BME280;14306;49.942;11.570;2023-07-20T04:23:04;97304.16;;;20.27;73.91
1371;BME280;14306;49.942;11.570;2023-07-20T04:25:34;97303.47;;;20.59;72.37
1371;BME280;14306;49.942;11.570;2023-07-20T04:28:06;97308.56;;;20.57;71.56
1371;BME280;14306;49.942;11.570;2023-07-20T04:30:37;97311.44;;;20.64;71.49
1371;BME280;14306;49.942;11.570;2023-07-20T04:33:05;97317.19;;;20.82;71.47
1371;BME280;14306;49.942;11.570;2023-07-20T04:35:50;97309.97;;;21.29;70.81
1371;BME280;14306;49.942;11.570;2023-07-20T04:38:19;97305.97;;;20.94;72.44
1371;BME280;14306;49.942;11.570;2023-07-20T04:40:49;97316.34;;;21.37;69.13
1371;BME280;14306;49.942;11.570;2023-07-20T04:43:17;97310.03;;;21.03;71.06
1371;BME280;14306;49.942;11.570;2023-07-20T04:45:46;97315.09;;;21.31;69.67
1371;BME280;14306;49.942;11.570;2023-07-20T04:48:16;97315.66;;;21.80;67.93
1371;BME280;14306;49.942;11.570;2023-07-20T04:50:45;97315.47;;;21.99;67.21
1371;BME280;14306;49.942;11.570;2023-07-20T04:53:13;97327.53;;;22.75;65.21
1371;BME280;14306;49.942;11.570;2023-07-20T04:55:48;97327.25;;;22.94;64.85
1371;BME280;14306;49.942;11.570;2023-07-20T04:58:19;97330.97;;;23.15;61.61
1371;BME280;14306;49.942;11.570;2023-07-20T05:00:48;97332.22;;;22.64;64.53
1371;BME280;14306;49.942;11.570;2023-07-20T05:03:17;97327.69;;;22.96;61.97
1371;BME280;14306;49.942;11.570;2023-07-20T05:05:46;97339.63;;;22.52;62.66
1371;BME280;14306;49.942;11.570;2023-07-20T05:08:16;97335.72;;;22.13;64.24
1371;BME280;14306;49.942;11.570;2023-07-20T05:10:44;97337.72;;;21.80;65.12
1371;BME280;14306;49.942;11.570;2023-07-20T05:13:14;97350.75;;;22.67;61.87
1371;BME280;14306;49.942;11.570;2023-07-20T05:15:42;97347.06;;;23.03;61.13
1371;BME280;14306;49.942;11.570;2023-07-20T05:18:11;97344.34;;;23.13;59.46
1371;BME280;14306;49.942;11.570;2023-07-20T05:20:39;97366.13;;;25.09;56.19
1371;BME280;14306;49.942;11.570;2023-07-20T05:23:07;97372.34;;;26.34;51.07
1371;BME280;14306;49.942;11.570;2023-07-20T05:25:36;97390.34;;;27.92;47.57
1371;BME280;14306;49.942;11.570;2023-07-20T05:28:04;97407.72;;;29.09;44.50
1371;BME280;14306;49.942;11.570;2023-07-20T05:30:34;97405.06;;;29.02;42.99
1371;BME280;14306;49.942;11.570;2023-07-20T05:33:02;97426.47;;;29.94;42.11
1371;BME280;14306;49.942;11.570;2023-07-20T05:35:30;97422.88;;;30.13;40.63
1371;BME280;14306;49.942;11.570;2023-07-20T05:37:58;97463.25;;;31.95;36.53
1371;BME280;14306;49.942;11.570;2023-07-20T05:40:26;97479.72;;;33.13;35.18
1371;BME280;14306;49.942;11.570;2023-07-20T05:42:55;97497.22;;;34.22;31.71
1371;BME280;14306;49.942;11.570;2023-07-20T05:45:23;97448.84;;;32.21;34.45
1371;BME280;14306;49.942;11.570;2023-07-20T05:47:52;97405.41;;;29.70;39.05
1371;BME280;14306;49.942;11.570;2023-07-20T05:50:21;97388.91;;;29.13;40.39
1371;BME280;14306;49.942;11.570;2023-07-20T05:52:53;97368.88;;;28.19;41.79
1371;BME280;14306;49.942;11.570;2023-07-20T05:55:22;97389.50;;;28.78;40.82
1371;BME280;14306;49.942;11.570;2023-07-20T05:57:50;97452.75;;;31.38;36.67
1371;BME280;14306;49.942;11.570;2023-07-20T06:00:18;97452.56;;;31.13;36.20
1371;BME280;14306;49.942;11.570;2023-07-20T06:02:54;97474.56;;;32.20;34.77
1371;BME280;14306;49.942;11.570;2023-07-20T06:05:23;97488.13;;;32.63;33.79
1371;BME280;14306;49.942;11.570;2023-07-20T06:07:55;97473.13;;;32.40;34.28
1371;BME280;14306;49.942;11.570;2023-07-20T06:10:25;97485.94;;;33.33;32.05
1371;BME280;14306;49.942;11.570;2023-07-20T06:12:53;97506.91;;;34.00;31.23
1371;BME280;14306;49.942;11.570;2023-07-20T06:15:25;97545.84;;;35.48;29.09
1371;BME280;14306;49.942;11.570;2023-07-20T06:17:55;97534.59;;;35.09;29.54
1371;BME280;14306;49.942;11.570;2023-07-20T06:20:25;97504.94;;;34.31;30.05
1371;BME280;14306;49.942;11.570;2023-07-20T06:22:54;97565.19;;;36.35;27.63
1371;BME280;14306;49.942;11.570;2023-07-20T06:25:22;97537.19;;;35.34;28.24
1371;BME280;14306;49.942;11.570;2023-07-20T06:27:50;97466.13;;;32.74;32.00
1371;BME280;14306;49.942;11.570;2023-07-20T06:30:19;97404.09;;;30.13;36.67
1371;BME280;14306;49.942;11.570;2023-07-20T06:32:47;97365.13;;;28.82;38.63
1371;BME280;14306;49.942;11.570;2023-07-20T06:35:17;97403.59;;;30.54;35.85
1371;BME280;14306;49.942;11.570;2023-07-20T06:37:46;97386.84;;;29.79;37.19
1371;BME280;14306;49.942;11.570;2023-07-20T06:40:14;97371.50;;;29.05;38.35
1371;BME280;14306;49.942;11.570;2023-07-20T06:42:45;97424.66;;;31.26;34.90
1371;BME280;14306;49.942;11.570;2023-07-20T06:45:16;97448.66;;;32.00;33.12
1371;BME280;14306;49.942;11.570;2023-07-20T06:47:45;97427.25;;;31.49;33.86
1371;BME280;14306;49.942;11.570;2023-07-20T06:50:13;97431.13;;;31.39;33.70
1371;BME280;14306;49.942;11.570;2023-07-20T06:52:45;97455.22;;;32.51;32.45
1371;BME280;14306;49.942;11.570;2023-07-20T06:55:15;97460.03;;;32.63;32.09
1371;BME280;14306;49.942;11.570;2023-07-20T06:57:49;97493.44;;;33.95;29.76
1371;BME280;14306;49.942;11.570;2023-07-20T07:00:19;97522.25;;;35.24;27.58
1371;BME280;14306;49.942;11.570;2023-07-20T07:02:47;97530.69;;;35.55;26.88
1371;BME280;14306;49.942;11.570;2023-07-20T07:05:17;97550.28;;;36.25;26.34
1371;BME280;14306;49.942;11.570;2023-07-20T07:07:48;97543.81;;;36.16;25.53
1371;BME280;14306;49.942;11.570;2023-07-20T07:10:16;97519.13;;;34.83;27.36
1371;BME280;14306;49.942;11.570;2023-07-20T07:12:45;97453.00;;;32.83;29.47
1371;BME280;14306;49.942;11.570;2023-07-20T07:15:13;97429.47;;;31.98;31.23
1371;BME280;14306;49.942;11.570;2023-07-20T07:17:42;97459.50;;;33.18;29.84
1371;BME280;14306;49.942;11.570;2023-07-20T07:20:11;97551.34;;;36.19;26.20
1371;BME280;14306;49.942;11.570;2023-07-20T07:22:50;97552.16;;;36.28;24.68
1371;BME280;14306;49.942;11.570;2023-07-20T07:25:20;97596.84;;;38.32;22.97
1371;BME280;14306;49.942;11.570;2023-07-20T07:27:50;97621.78;;;39.33;22.05
1371;BME280;14306;49.942;11.570;2023-07-20T07:30:19;97556.53;;;36.74;24.03
1371;BME280;14306;49.942;11.570;2023-07-20T07:32:48;97544.00;;;36.30;24.79
1371;BME280;14306;49.942;11.570;2023-07-20T07:35:16;97525.94;;;35.43;25.57
1371;BME280;14306;49.942;11.570;2023-07-20T07:37:44;97559.34;;;36.83;23.94
1371;BME280;14306;49.942;11.570;2023-07-20T07:40:35;97552.63;;;36.27;24.66
1371;BME280;14306;49.942;11.570;2023-07-20T07:43:03;97462.72;;;33.54;27.41
1371;BME280;14306;49.942;11.570;2023-07-20T07:45:34;97447.28;;;32.99;29.01
1371;BME280;14306;49.942;11.570;2023-07-20T07:48:03;97427.78;;;32.29;29.52
1371;BME280;14306;49.942;11.570;2023-07-20T07:50:32;97451.19;;;33.14;27.79
1371;BME280;14306;49.942;11.570;2023-07-20T07:53:00;97529.91;;;35.63;25.50
1371;BME280;14306;49.942;11.570;2023-07-20T07:55:30;97520.53;;;35.67;24.11
1371;BME280;14306;49.942;11.570;2023-07-20T07:57:59;97469.63;;;33.87;26.29
1371;BME280;14306;49.942;11.570;2023-07-20T08:00:27;97436.13;;;32.71;27.94
1371;BME280;14306;49.942;11.570;2023-07-20T08:02:56;97455.00;;;33.20;27.30
1371;BME280;14306;49.942;11.570;2023-07-20T08:05:24;97437.03;;;32.55;27.89
1371;BME280;14306;49.942;11.570;2023-07-20T08:07:53;97485.84;;;34.26;25.79
1371;BME280;14306;49.942;11.570;2023-07-20T08:10:21;97508.09;;;35.06;25.29
1371;BME280;14306;49.942;11.570;2023-07-20T08:12:52;97569.22;;;37.38;22.39
1371;BME280;14306;49.942;11.570;2023-07-20T08:15:21;97514.66;;;35.34;24.58
1371;BME280;14306;49.942;11.570;2023-07-20T08:17:49;97513.31;;;34.86;25.09
1371;BME280;14306;49.942;11.570;2023-07-20T08:20:19;97503.56;;;34.78;25.32
1371;BME280;14306;49.942;11.570;2023-07-20T08:22:53;97523.00;;;35.55;24.73
1371;BME280;14306;49.942;11.570;2023-07-20T08:25:23;97554.66;;;36.62;23.17
1371;BME280;14306;49.942;11.570;2023-07-20T08:27:51;97560.28;;;36.89;22.99
1371;BME280;14306;49.942;11.570;2023-07-20T08:30:22;97454.75;;;33.40;26.55
1371;BME280;14306;49.942;11.570;2023-07-20T08:32:51;97419.38;;;31.88;28.60
1371;BME280;14306;49.942;11.570;2023-07-20T08:35:19;97410.84;;;31.63;28.97
1371;BME280;14306;49.942;11.570;2023-07-20T08:37:48;97438.16;;;32.58;28.08
1371;BME280;14306;49.942;11.570;2023-07-20T08:40:17;97436.25;;;32.55;28.13
1371;BME280;14306;49.942;11.570;2023-07-20T08:42:45;97432.50;;;32.32;28.35
1371;BME280;14306;49.942;11.570;2023-07-20T08:45:15;97470.88;;;33.73;26.60
1371;BME280;14306;49.942;11.570;2023-07-20T08:47:48;97466.91;;;33.83;26.41
1371;BME280;14306;49.942;11.570;2023-07-20T08:50:19;97498.75;;;34.57;25.12
1371;BME280;14306;49.942;11.570;2023-07-20T08:52:50;97430.16;;;32.02;27.99
1371;BME280;14306;49.942;11.570;2023-07-20T08:55:21;97387.13;;;30.40;29.92
1371;BME280;14306;49.942;11.570;2023-07-20T08:57:50;97365.44;;;29.73;31.46
1371;BME280;14306;49.942;11.570;2023-07-20T09:00:21;97439.25;;;32.47;26.96
1371;BME280;14306;49.942;11.570;2023-07-20T09:02:53;97448.28;;;33.05;26.16
1371;BME280;14306;49.942;11.570;2023-07-20T09:05:22;97494.56;;;34.19;25.36
1371;BME280;14306;49.942;11.570;2023-07-20T09:07:52;97537.22;;;36.01;23.17
1371;BME280;14306;49.942;11.570;2023-07-20T09:10:21;97540.66;;;36.05;23.13
1371;BME280;14306;49.942;11.570;2023-07-20T09:12:51;97539.06;;;35.77;23.39
1371;BME280;14306;49.942;11.570;2023-07-20T09:15:20;97523.09;;;35.83;23.31
1371;BME280;14306;49.942;11.570;2023-07-20T09:17:49;97460.94;;;33.47;25.18
1371;BME280;14306;49.942;11.570;2023-07-20T09:20:20;97452.66;;;32.94;26.50
1371;BME280;14306;49.942;11.570;2023-07-20T09:22:50;97527.19;;;35.42;24.18
1371;BME280;14306;49.942;11.570;2023-07-20T09:25:19;97487.34;;;34.61;24.11
1371;BME280;14306;49.942;11.570;2023-07-20T09:27:49;97550.72;;;36.33;22.40
1371;BME280;14306;49.942;11.570;2023-07-20T09:30:18;97553.72;;;36.38;22.38
1371;BME280;14306;49.942;11.570;2023-07-20T09:32:48;97528.81;;;35.61;23.56
1371;BME280;14306;49.942;11.570;2023-07-20T09:35:22;97539.41;;;36.06;22.43
1371;BME280;14306;49.942;11.570;2023-07-20T09:37:55;97524.44;;;35.51;23.25
1371;BME280;14306;49.942;11.570;2023-07-20T09:40:28;97512.16;;;35.05;23.53
1371;BME280;14306;49.942;11.570;2023-07-20T09:43:00;97487.22;;;34.21;24.83
1371;BME280;14306;49.942;11.570;2023-07-20T09:45:33;97490.94;;;34.18;24.38
1371;BME280;14306;49.942;11.570;2023-07-20T09:48:06;97509.03;;;35.03;23.08
1371;BME280;14306;49.942;11.570;2023-07-20T09:50:42;97503.78;;;34.19;24.24
1371;BME280;14306;49.942;11.570;2023-07-20T09:53:12;97517.19;;;35.10;23.53
1371;BME280;14306;49.942;11.570;2023-07-20T09:55:41;97529.63;;;35.71;23.07
1371;BME280;14306;49.942;11.570;2023-07-20T09:58:09;97547.75;;;36.27;22.37
1371;BME280;14306;49.942;11.570;2023-07-20T10:00:39;97537.06;;;36.13;22.62
1371;BME280;14306;49.942;11.570;2023-07-20T10:03:18;97525.47;;;36.20;22.34
1371;BME280;14306;49.942;11.570;2023-07-20T10:05:52;97526.38;;;35.81;22.59
1371;BME280;14306;49.942;11.570;2023-07-20T10:08:24;97538.16;;;36.52;22.19
1371;BME280;14306;49.942;11.570;2023-07-20T10:10:57;97584.44;;;38.29;19.78
1371;BME280;14306;49.942;11.570;2023-07-20T10:13:27;97556.22;;;37.32;21.24
1371;BME280;14306;49.942;11.570;2023-07-20T10:16:00;97545.97;;;36.93;21.45
1371;BME280;14306;49.942;11.570;2023-07-20T10:18:33;97500.88;;;35.36;22.96
1371;BME280;14306;49.942;11.570;2023-07-20T10:21:06;97474.19;;;34.15;24.41
1371;BME280;14306;49.942;11.570;2023-07-20T10:23:38;97432.56;;;32.83;25.26
1371;BME280;14306;49.942;11.570;2023-07-20T10:26:07;97408.41;;;31.94;27.14
1371;BME280;14306;49.942;11.570;2023-07-20T10:28:36;97419.38;;;32.29;26.65
1371;BME280;14306;49.942;11.570;2023-07-20T10:31:04;97428.72;;;32.77;26.70
1371;BME280;14306;49.942;11.570;2023-07-20T10:33:33;97430.78;;;33.01;26.17
1371;BME280;14306;49.942;11.570;2023-07-20T10:36:03;97405.41;;;31.72;27.75
1371;BME280;14306;49.942;11.570;2023-07-20T10:38:40;97409.22;;;32.07;27.84
1371;BME280;14306;49.942;11.570;2023-07-20T10:41:18;97452.06;;;33.49;25.91
1371;BME280;14306;49.942;11.570;2023-07-20T10:43:47;97460.66;;;34.01;24.97
1371;BME280;14306;49.942;11.570;2023-07-20T10:46:41;97461.75;;;34.03;25.02
1371;BME280;14306;49.942;11.570;2023-07-20T10:49:11;97438.69;;;33.40;25.86
1371;BME280;14306;49.942;11.570;2023-07-20T10:51:41;97445.97;;;33.84;25.53
1371;BME280;14306;49.942;11.570;2023-07-20T10:54:34;97464.00;;;34.30;24.70
1371;BME280;14306;49.942;11.570;2023-07-20T10:57:25;97463.53;;;34.10;24.83
1371;BME280;14306;49.942;11.570;2023-07-20T11:00:11;97475.63;;;34.62;24.26
1371;BME280;14306;49.942;11.570;2023-07-20T11:02:43;97494.34;;;35.08;23.36
1371;BME280;14306;49.942;11.570;2023-07-20T11:05:33;97480.31;;;34.87;23.29
1371;BME280;14306;49.942;11.570;2023-07-20T11:08:09;97500.25;;;35.32;23.21
1371;BME280;14306;49.942;11.570;2023-07-20T11:10:39;97471.00;;;34.77;23.61
1371;BME280;14306;49.942;11.570;2023-07-20T11:13:21;97454.72;;;34.42;23.12
1371;BME280;14306;49.942;11.570;2023-07-20T11:16:04;97482.28;;;35.08;22.81
1371;BME280;14306;49.942;11.570;2023-07-20T11:18:34;97471.44;;;34.97;22.29
1371;BME280;14306;49.942;11.570;2023-07-20T11:21:09;97435.66;;;34.03;24.04
1371;BME280;14306;49.942;11.570;2023-07-20T11:23:38;97441.53;;;34.17;23.47
1371;BME280;14306;49.942;11.570;2023-07-20T11:26:08;97426.41;;;33.81;22.96
1371;BME280;14306;49.942;11.570;2023-07-20T11:28:38;97420.63;;;33.16;24.67
1371;BME280;14306;49.942;11.570;2023-07-20T11:31:06;97417.28;;;33.55;23.42
1371;BME280;14306;49.942;11.570;2023-07-20T11:33:34;97391.56;;;32.73;24.91
1371;BME280;14306;49.942;11.570;2023-07-20T11:36:03;97379.00;;;32.39;25.01
1371;BME280;14306;49.942;11.570;2023-07-20T11:38:53;97350.34;;;31.21;26.39
1371;BME280;14306;49.942;11.570;2023-07-20T11:41:24;97344.25;;;30.94;27.37
1371;BME280;14306;49.942;11.570;2023-07-20T11:43:53;97331.13;;;30.43;27.73
1371;BME280;14306;49.942;11.570;2023-07-20T11:46:22;97340.69;;;30.78;26.33
1371;BME280;14306;49.942;11.570;2023-07-20T11:48:56;97303.41;;;29.23;30.08
1371;BME280;14306;49.942;11.570;2023-07-20T11:51:25;97305.25;;;29.29;30.29
1371;BME280;14306;49.942;11.570;2023-07-20T11:53:54;97312.34;;;29.53;29.86
1371;BME280;14306;49.942;11.570;2023-07-20T11:56:25;97311.78;;;29.42;30.28
1371;BME280;14306;49.942;11.570;2023-07-20T11:58:55;97332.88;;;30.37;29.14
1371;BME280;14306;49.942;11.570;2023-07-20T12:01:26;97323.88;;;30.10;29.46
1371;BME280;14306;49.942;11.570;2023-07-20T12:03:56;97297.66;;;29.10;31.11
1371;BME280;14306;49.942;11.570;2023-07-20T12:06:27;97310.56;;;29.63;31.03
1371;BME280;14306;49.942;11.570;2023-07-20T12:08:57;97308.50;;;29.67;30.06
1371;BME280;14306;49.942;11.570;2023-07-20T12:11:34;97320.59;;;29.80;30.35
1371;BME280;14306;49.942;11.570;2023-07-20T12:14:03;97323.25;;;29.87;30.30
1371;BME280;14306;49.942;11.570;2023-07-20T12:16:44;97315.69;;;29.68;30.22
1371;BME280;14306;49.942;11.570;2023-07-20T12:19:13;97351.59;;;30.56;29.11
1371;BME280;14306;49.942;11.570;2023-07-20T12:21:41;97336.38;;;30.41;29.72
1371;BME280;14306;49.942;11.570;2023-07-20T12:24:10;97344.97;;;30.82;29.31
1371;BME280;14306;49.942;11.570;2023-07-20T12:26:40;97350.28;;;30.93;29.13
1371;BME280;14306;49.942;11.570;2023-07-20T12:29:10;97360.75;;;31.65;27.91
1371;BME280;14306;49.942;11.570;2023-07-20T12:31:38;97365.47;;;31.68;27.47
1371;BME280;14306;49.942;11.570;2023-07-20T12:34:06;97355.88;;;31.25;28.43
1371;BME280;14306;49.942;11.570;2023-07-20T12:36:35;97337.50;;;31.24;27.87
1371;BME280;14306;49.942;11.570;2023-07-20T12:39:03;97362.88;;;31.17;28.19
1371;BME280;14306;49.942;11.570;2023-07-20T12:41:31;97342.28;;;30.79;28.56
1371;BME280;14306;49.942;11.570;2023-07-20T12:44:01;97338.50;;;30.69;28.78
1371;BME280;14306;49.942;11.570;2023-07-20T12:46:29;97343.16;;;30.76;28.30
1371;BME280;14306;49.942;11.570;2023-07-20T12:49:02;97343.47;;;30.78;28.15
1371;BME280;14306;49.942;11.570;2023-07-20T12:51:30;97328.69;;;30.45;28.98
1371;BME280;14306;49.942;11.570;2023-07-20T12:53:58;97328.25;;;30.31;28.75
1371;BME280;14306;49.942;11.570;2023-07-20T12:56:27;97309.84;;;29.78;30.04
1371;BME280;14306;49.942;11.570;2023-07-20T12:58:57;97300.00;;;29.90;30.09
1371;BME280;14306;49.942;11.570;2023-07-20T13:01:27;97305.69;;;29.86;30.27
1371;BME280;14306;49.942;11.570;2023-07-20T13:03:57;97291.75;;;29.47;30.73
1371;BME280;14306;49.942;11.570;2023-07-20T13:06:28;97293.44;;;29.41;30.92
1371;BME280;14306;49.942;11.570;2023-07-20T13:08:57;97289.16;;;29.56;29.47
1371;BME280;14306;49.942;11.570;2023-07-20T13:11:25;97304.66;;;29.96;29.57
1371;BME280;14306;49.942;11.570;2023-07-20T13:13:53;97306.22;;;29.97;29.69
1371;BME280;14306;49.942;11.570;2023-07-20T13:16:22;97291.25;;;29.72;29.59